sensor_id;sensor_type;location;lat;lon;timestamp;temperature;humidity
29341;DHT22;16337;59.536;13.468;2023-09-07T00:00:14;12.80;99.90
29341;DHT22;16337;59.536;13.468;2023-09-07T00:02:40;12.70;99.90
29341;DHT22;16337;59.536;13.468;2023-09-07T00:05:06;12.70;99.90
29341;DHT22;16337;59.536;13.468;2023-09-07T00:07:33;12.60;99.90
29341;DHT22;16337;59.536;13.468;2023-09-07T00:09:59;12.60;99.90
29341;DHT22;16337;59.536;13.468;2023-09-07T00:12:25;12.50;99.90
29341;DHT22;16337;59.536;13.468;2023-09-07T00:14:53;12.50;99.90
29341;DHT22;16337;59.536;13.468;2023-09-07T00:17:19;12.50;99.90
29341;DHT22;16337;59.536;13.468;2023-09-07T00:19:45;12.40;99.90
29341;DHT22;16337;59.536;13.468;2023-09-07T00:22:14;12.40;99.90
29341;DHT22;16337;59.536;13.468;2023-09-07T00:24:40;12.40;99.90
29341;DHT22;16337;59.536;13.468;2023-09-07T00:27:05;12.40;99.90
29341;DHT22;16337;59.536;13.468;2023-09-07T00:29:34;12.30;99.90
29341;DHT22;16337;59.536;13.468;2023-09-07T00:32:00;12.30;99.90
29341;DHT22;16337;59.536;13.468;2023-09-07T00:34:26;12.20;99.90
29341;DHT22;16337;59.536;13.468;2023-09-07T00:36:51;12.20;99.90
29341;DHT22;16337;59.536;13.468;2023-09-07T00:39:17;12.20;99.90
29341;DHT22;16337;59.536;13.468;2023-09-07T00:41:43;12.20;99.90
29341;DHT22;16337;59.536;13.468;2023-09-07T00:44:08;12.20;99.90
29341;DHT22;16337;59.536;13.468;2023-09-07T00:46:34;12.20;99.90
29341;DHT22;16337;59.536;13.468;2023-09-07T00:49:00;12.30;99.90
29341;DHT22;16337;59.536;13.468;2023-09-07T00:51:26;12.30;99.90
29341;DHT22;16337;59.536;13.468;2023-09-07T00:53:52;12.50;99.90
29341;DHT22;16337;59.536;13.468;2023-09-07T00:56:18;12.70;99.90
29341;DHT22;16337;59.536;13.468;2023-09-07T00:58:44;12.80;99.90
29341;DHT22;16337;59.536;13.468;2023-09-07T01:01:10;13.00;99.90
29341;DHT22;16337;59.536;13.468;2023-09-07T01:03:36;13.00;99.90
29341;DHT22;16337;59.536;13.468;2023-09-07T01:08:40;13.20;99.90
29341;DHT22;16337;59.536;13.468;2023-09-07T01:11:17;13.30;99.90
29341;DHT22;16337;59.536;13.468;2023-09-07T01:13:43;13.40;99.90
29341;DHT22;16337;59.536;13.468;2023-09-07T01:16:10;13.50;99.90
29341;DHT22;16337;59.536;13.468;2023-09-07T01:18:37;13.60;99.90
29341;DHT22;16337;59.536;13.468;2023-09-07T01:21:06;13.70;99.90
29341;DHT22;16337;59.536;13.468;2023-09-07T01:23:35;13.70;99.90
29341;DHT22;16337;59.536;13.468;2023-09-07T01:26:02;13.80;99.90
29341;DHT22;16337;59.536;13.468;2023-09-07T01:28:28;13.80;99.90
29341;DHT22;16337;59.536;13.468;2023-09-07T01:30:53;13.80;99.90
29341;DHT22;16337;59.536;13.468;2023-09-07T01:33:19;13.90;99.90
29341;DHT22;16337;59.536;13.468;2023-09-07T01:35:45;13.90;99.90
29341;DHT22;16337;59.536;13.468;2023-09-07T01:38:11;13.90;99.90
29341;DHT22;16337;59.536;13.468;2023-09-07T01:40:37;14.00;99.90
29341;DHT22;16337;59.536;13.468;2023-09-07T01:43:03;14.00;99.90
29341;DHT22;16337;59.536;13.468;2023-09-07T01:45:29;14.00;99.90
29341;DHT22;16337;59.536;13.468;2023-09-07T01:47:55;14.00;99.90
29341;DHT22;16337;59.536;13.468;2023-09-07T01:50:20;14.00;99.90
29341;DHT22;16337;59.536;13.468;2023-09-07T01:52:49;14.00;99.90
29341;DHT22;16337;59.536;13.468;2023-09-07T01:55:15;14.00;99.90
29341;DHT22;16337;59.536;13.468;2023-09-07T01:57:40;14.10;99.90
29341;DHT22;16337;59.536;13.468;2023-09-07T02:00:06;14.10;99.90
29341;DHT22;16337;59.536;13.468;2023-09-07T02:02:32;14.10;99.90
29341;DHT22;16337;59.536;13.468;2023-09-07T02:04:58;14.00;99.90
29341;DHT22;16337;59.536;13.468;2023-09-07T02:07:24;14.10;99.90
29341;DHT22;16337;59.536;13.468;2023-09-07T02:09:50;14.00;99.90
29341;DHT22;16337;59.536;13.468;2023-09-07T02:12:17;14.00;99.90
29341;DHT22;16337;59.536;13.468;2023-09-07T02:14:42;14.00;99.90
29341;DHT22;16337;59.536;13.468;2023-09-07T02:17:08;14.00;99.90
29341;DHT22;16337;59.536;13.468;2023-09-07T02:19:34;14.00;99.90
29341;DHT22;16337;59.536;13.468;2023-09-07T02:22:01;14.00;99.90
29341;DHT22;16337;59.536;13.468;2023-09-07T02:24:26;13.90;99.90
29341;DHT22;16337;59.536;13.468;2023-09-07T02:26:52;13.90;99.90
29341;DHT22;16337;59.536;13.468;2023-09-07T02:29:18;13.90;99.90
29341;DHT22;16337;59.536;13.468;2023-09-07T02:31:43;14.00;99.90
29341;DHT22;16337;59.536;13.468;2023-09-07T02:34:09;14.00;99.90
29341;DHT22;16337;59.536;13.468;2023-09-07T02:36:35;14.00;99.90
29341;DHT22;16337;59.536;13.468;2023-09-07T02:39:01;14.00;99.90
29341;DHT22;16337;59.536;13.468;2023-09-07T02:41:27;14.00;99.90
29341;DHT22;16337;59.536;13.468;2023-09-07T02:43:53;14.00;99.90
29341;DHT22;16337;59.536;13.468;2023-09-07T02:46:18;14.00;99.90
29341;DHT22;16337;59.536;13.468;2023-09-07T02:48:44;14.00;99.90
29341;DHT22;16337;59.536;13.468;2023-09-07T02:51:10;14.00;99.90
29341;DHT22;16337;59.536;13.468;2023-09-07T02:53:35;14.10;99.90
29341;DHT22;16337;59.536;13.468;2023-09-07T02:56:01;14.10;99.90
29341;DHT22;16337;59.536;13.468;2023-09-07T02:58:30;14.10;99.90
29341;DHT22;16337;59.536;13.468;2023-09-07T03:00:56;14.10;99.90
29341;DHT22;16337;59.536;13.468;2023-09-07T03:03:21;14.20;99.90
29341;DHT22;16337;59.536;13.468;2023-09-07T03:05:47;14.10;99.90
29341;DHT22;16337;59.536;13.468;2023-09-07T03:08:13;14.20;99.90
29341;DHT22;16337;59.536;13.468;2023-09-07T03:10:39;14.20;99.90
29341;DHT22;16337;59.536;13.468;2023-09-07T03:13:05;14.20;99.90
29341;DHT22;16337;59.536;13.468;2023-09-07T03:15:32;14.20;99.90
29341;DHT22;16337;59.536;13.468;2023-09-07T03:17:58;14.30;99.90
29341;DHT22;16337;59.536;13.468;2023-09-07T03:20:23;14.30;99.90
29341;DHT22;16337;59.536;13.468;2023-09-07T03:22:49;14.30;99.90
29341;DHT22;16337;59.536;13.468;2023-09-07T03:25:15;14.30;99.90
29341;DHT22;16337;59.536;13.468;2023-09-07T03:27:40;14.30;99.90
29341;DHT22;16337;59.536;13.468;2023-09-07T03:30:06;14.30;99.90
29341;DHT22;16337;59.536;13.468;2023-09-07T03:32:33;14.30;99.90
29341;DHT22;16337;59.536;13.468;2023-09-07T03:35:04;14.40;99.90
29341;DHT22;16337;59.536;13.468;2023-09-07T03:37:35;14.40;99.90
29341;DHT22;16337;59.536;13.468;2023-09-07T03:40:01;14.40;99.90
29341;DHT22;16337;59.536;13.468;2023-09-07T03:42:26;14.40;99.90
29341;DHT22;16337;59.536;13.468;2023-09-07T03:44:52;14.40;99.90
29341;DHT22;16337;59.536;13.468;2023-09-07T03:47:18;14.40;99.90
29341;DHT22;16337;59.536;13.468;2023-09-07T03:49:43;14.40;99.90
29341;DHT22;16337;59.536;13.468;2023-09-07T03:52:10;14.50;99.90
29341;DHT22;16337;59.536;13.468;2023-09-07T03:54:37;14.50;99.90
29341;DHT22;16337;59.536;13.468;2023-09-07T03:57:03;14.50;99.90
29341;DHT22;16337;59.536;13.468;2023-09-07T03:59:29;14.50;99.90
29341;DHT22;16337;59.536;13.468;2023-09-07T04:01:57;14.50;99.90
29341;DHT22;16337;59.536;13.468;2023-09-07T04:04:23;14.50;99.90
29341;DHT22;16337;59.536;13.468;2023-09-07T04:06:49;14.50;99.90
29341;DHT22;16337;59.536;13.468;2023-09-07T04:09:15;14.60;99.90
29341;DHT22;16337;59.536;13.468;2023-09-07T04:11:41;14.60;99.90
29341;DHT22;16337;59.536;13.468;2023-09-07T04:14:07;14.60;99.90
29341;DHT22;16337;59.536;13.468;2023-09-07T04:16:33;14.60;99.90
29341;DHT22;16337;59.536;13.468;2023-09-07T04:18:58;14.60;99.90
29341;DHT22;16337;59.536;13.468;2023-09-07T04:21:24;14.70;99.90
29341;DHT22;16337;59.536;13.468;2023-09-07T04:23:49;14.70;99.90
29341;DHT22;16337;59.536;13.468;2023-09-07T04:26:15;14.70;99.90
29341;DHT22;16337;59.536;13.468;2023-09-07T04:28:42;14.70;99.90
29341;DHT22;16337;59.536;13.468;2023-09-07T04:31:07;14.70;99.90
29341;DHT22;16337;59.536;13.468;2023-09-07T04:33:34;14.80;99.90
29341;DHT22;16337;59.536;13.468;2023-09-07T04:36:09;14.80;99.90
29341;DHT22;16337;59.536;13.468;2023-09-07T04:38:36;14.80;99.90
29341;DHT22;16337;59.536;13.468;2023-09-07T04:41:12;14.90;99.90
29341;DHT22;16337;59.536;13.468;2023-09-07T04:43:39;14.90;99.90
29341;DHT22;16337;59.536;13.468;2023-09-07T04:46:09;14.90;99.90
29341;DHT22;16337;59.536;13.468;2023-09-07T04:48:39;15.00;99.90
29341;DHT22;16337;59.536;13.468;2023-09-07T04:51:07;15.00;99.90
29341;DHT22;16337;59.536;13.468;2023-09-07T04:53:35;15.00;99.90
29341;DHT22;16337;59.536;13.468;2023-09-07T04:56:05;15.00;99.90
29341;DHT22;16337;59.536;13.468;2023-09-07T04:58:32;15.10;99.90
29341;DHT22;16337;59.536;13.468;2023-09-07T05:01:02;15.20;99.90
29341;DHT22;16337;59.536;13.468;2023-09-07T05:03:29;15.20;99.90
29341;DHT22;16337;59.536;13.468;2023-09-07T05:05:55;15.30;99.90
29341;DHT22;16337;59.536;13.468;2023-09-07T05:08:21;15.30;99.90
29341;DHT22;16337;59.536;13.468;2023-09-07T05:10:48;15.30;99.90
29341;DHT22;16337;59.536;13.468;2023-09-07T05:13:14;15.30;99.90
29341;DHT22;16337;59.536;13.468;2023-09-07T05:15:50;15.40;99.90
29341;DHT22;16337;59.536;13.468;2023-09-07T05:18:17;15.40;99.90
29341;DHT22;16337;59.536;13.468;2023-09-07T05:20:43;15.40;99.90
29341;DHT22;16337;59.536;13.468;2023-09-07T05:23:17;15.40;99.90
29341;DHT22;16337;59.536;13.468;2023-09-07T05:25:54;15.40;99.90
29341;DHT22;16337;59.536;13.468;2023-09-07T05:28:29;15.60;99.90
29341;DHT22;16337;59.536;13.468;2023-09-07T05:30:55;15.70;99.90
29341;DHT22;16337;59.536;13.468;2023-09-07T05:33:21;15.70;99.90
29341;DHT22;16337;59.536;13.468;2023-09-07T05:35:47;15.70;99.90
29341;DHT22;16337;59.536;13.468;2023-09-07T05:38:13;15.70;99.90
29341;DHT22;16337;59.536;13.468;2023-09-07T05:40:41;15.80;99.90
29341;DHT22;16337;59.536;13.468;2023-09-07T05:43:11;15.80;99.90
29341;DHT22;16337;59.536;13.468;2023-09-07T05:45:40;15.80;99.90
29341;DHT22;16337;59.536;13.468;2023-09-07T05:48:07;15.90;99.90
29341;DHT22;16337;59.536;13.468;2023-09-07T05:50:38;15.90;99.90
29341;DHT22;16337;59.536;13.468;2023-09-07T05:53:04;15.90;99.90
29341;DHT22;16337;59.536;13.468;2023-09-07T05:55:31;16.00;99.90
29341;DHT22;16337;59.536;13.468;2023-09-07T05:57:57;16.00;99.90
29341;DHT22;16337;59.536;13.468;2023-09-07T06:00:23;16.10;99.90
29341;DHT22;16337;59.536;13.468;2023-09-07T06:02:49;16.10;99.90
29341;DHT22;16337;59.536;13.468;2023-09-07T06:05:15;16.10;99.90
29341;DHT22;16337;59.536;13.468;2023-09-07T06:07:41;16.10;99.90
29341;DHT22;16337;59.536;13.468;2023-09-07T06:10:07;16.20;99.90
29341;DHT22;16337;59.536;13.468;2023-09-07T06:12:33;16.20;99.90
29341;DHT22;16337;59.536;13.468;2023-09-07T06:15:00;16.20;99.90
29341;DHT22;16337;59.536;13.468;2023-09-07T06:17:26;16.20;99.90
29341;DHT22;16337;59.536;13.468;2023-09-07T06:19:53;16.10;99.90
29341;DHT22;16337;59.536;13.468;2023-09-07T06:22:19;16.10;99.90
29341;DHT22;16337;59.536;13.468;2023-09-07T06:24:44;16.10;99.90
29341;DHT22;16337;59.536;13.468;2023-09-07T06:27:10;16.10;99.90
29341;DHT22;16337;59.536;13.468;2023-09-07T06:29:35;16.10;99.90
29341;DHT22;16337;59.536;13.468;2023-09-07T06:32:01;16.00;99.90
29341;DHT22;16337;59.536;13.468;2023-09-07T06:34:27;16.00;99.90
29341;DHT22;16337;59.536;13.468;2023-09-07T06:36:52;16.00;99.90
29341;DHT22;16337;59.536;13.468;2023-09-07T06:39:18;16.10;99.90
29341;DHT22;16337;59.536;13.468;2023-09-07T06:41:45;16.10;99.90
29341;DHT22;16337;59.536;13.468;2023-09-07T06:44:11;16.10;99.90
29341;DHT22;16337;59.536;13.468;2023-09-07T06:46:37;16.20;99.90
29341;DHT22;16337;59.536;13.468;2023-09-07T06:49:03;16.20;99.90
29341;DHT22;16337;59.536;13.468;2023-09-07T06:51:30;16.10;99.90
29341;DHT22;16337;59.536;13.468;2023-09-07T06:53:56;16.10;99.90
29341;DHT22;16337;59.536;13.468;2023-09-07T06:56:22;16.10;99.90
29341;DHT22;16337;59.536;13.468;2023-09-07T06:58:48;16.00;99.90
29341;DHT22;16337;59.536;13.468;2023-09-07T07:01:13;16.00;99.90
29341;DHT22;16337;59.536;13.468;2023-09-07T07:03:39;16.00;99.90
29341;DHT22;16337;59.536;13.468;2023-09-07T07:06:06;16.00;99.90
29341;DHT22;16337;59.536;13.468;2023-09-07T07:08:32;16.00;99.90
29341;DHT22;16337;59.536;13.468;2023-09-07T07:10:58;16.00;99.90
29341;DHT22;16337;59.536;13.468;2023-09-07T07:13:24;16.10;99.90
29341;DHT22;16337;59.536;13.468;2023-09-07T07:15:50;16.10;99.90
29341;DHT22;16337;59.536;13.468;2023-09-07T07:18:15;16.10;99.90
29341;DHT22;16337;59.536;13.468;2023-09-07T07:20:42;16.20;99.90
29341;DHT22;16337;59.536;13.468;2023-09-07T07:23:11;16.20;99.90
29341;DHT22;16337;59.536;13.468;2023-09-07T07:25:38;16.10;99.90
29341;DHT22;16337;59.536;13.468;2023-09-07T07:28:04;16.20;99.90
29341;DHT22;16337;59.536;13.468;2023-09-07T07:30:32;16.20;99.90
29341;DHT22;16337;59.536;13.468;2023-09-07T07:32:58;16.30;99.90
29341;DHT22;16337;59.536;13.468;2023-09-07T07:35:23;16.40;99.90
29341;DHT22;16337;59.536;13.468;2023-09-07T07:37:50;16.50;99.90
29341;DHT22;16337;59.536;13.468;2023-09-07T07:40:16;16.60;99.90
29341;DHT22;16337;59.536;13.468;2023-09-07T07:42:46;16.70;99.90
29341;DHT22;16337;59.536;13.468;2023-09-07T07:45:12;16.80;99.90
29341;DHT22;16337;59.536;13.468;2023-09-07T07:47:39;16.80;99.90
29341;DHT22;16337;59.536;13.468;2023-09-07T07:50:05;16.80;99.90
29341;DHT22;16337;59.536;13.468;2023-09-07T07:52:31;16.80;99.90
29341;DHT22;16337;59.536;13.468;2023-09-07T07:54:57;16.80;99.90
29341;DHT22;16337;59.536;13.468;2023-09-07T07:57:22;16.90;99.90
29341;DHT22;16337;59.536;13.468;2023-09-07T07:59:49;17.00;99.90
29341;DHT22;16337;59.536;13.468;2023-09-07T08:02:14;17.00;99.90
29341;DHT22;16337;59.536;13.468;2023-09-07T08:04:40;17.20;99.90
29341;DHT22;16337;59.536;13.468;2023-09-07T08:07:06;17.30;99.90
29341;DHT22;16337;59.536;13.468;2023-09-07T08:09:34;17.40;99.90
29341;DHT22;16337;59.536;13.468;2023-09-07T08:12:00;17.50;99.90
29341;DHT22;16337;59.536;13.468;2023-09-07T08:14:29;17.60;99.90
29341;DHT22;16337;59.536;13.468;2023-09-07T08:16:55;17.70;99.90
29341;DHT22;16337;59.536;13.468;2023-09-07T08:19:21;17.70;99.90
29341;DHT22;16337;59.536;13.468;2023-09-07T08:21:47;17.80;99.90
29341;DHT22;16337;59.536;13.468;2023-09-07T08:24:13;17.80;99.90
29341;DHT22;16337;59.536;13.468;2023-09-07T08:26:39;17.70;99.90
29341;DHT22;16337;59.536;13.468;2023-09-07T08:29:05;17.90;99.90
29341;DHT22;16337;59.536;13.468;2023-09-07T08:31:32;18.30;99.90
29341;DHT22;16337;59.536;13.468;2023-09-07T08:34:03;18.70;99.90
29341;DHT22;16337;59.536;13.468;2023-09-07T08:36:29;19.10;99.90
29341;DHT22;16337;59.536;13.468;2023-09-07T08:39:03;19.30;99.90
29341;DHT22;16337;59.536;13.468;2023-09-07T08:41:40;19.40;99.90
29341;DHT22;16337;59.536;13.468;2023-09-07T08:44:19;19.50;99.90
29341;DHT22;16337;59.536;13.468;2023-09-07T08:46:49;19.50;99.90
29341;DHT22;16337;59.536;13.468;2023-09-07T08:49:15;19.50;99.90
29341;DHT22;16337;59.536;13.468;2023-09-07T08:51:45;19.70;99.90
29341;DHT22;16337;59.536;13.468;2023-09-07T08:54:12;19.80;99.90
29341;DHT22;16337;59.536;13.468;2023-09-07T08:56:38;19.70;99.90
29341;DHT22;16337;59.536;13.468;2023-09-07T08:59:04;19.80;99.90
29341;DHT22;16337;59.536;13.468;2023-09-07T09:01:32;19.80;99.90
29341;DHT22;16337;59.536;13.468;2023-09-07T09:03:59;19.90;99.90
29341;DHT22;16337;59.536;13.468;2023-09-07T09:06:25;19.80;99.90
29341;DHT22;16337;59.536;13.468;2023-09-07T09:08:55;19.70;99.90
29341;DHT22;16337;59.536;13.468;2023-09-07T09:11:23;19.60;99.90
29341;DHT22;16337;59.536;13.468;2023-09-07T09:13:50;19.40;99.90
29341;DHT22;16337;59.536;13.468;2023-09-07T09:16:16;19.40;99.90
29341;DHT22;16337;59.536;13.468;2023-09-07T09:19:08;19.30;99.90
29341;DHT22;16337;59.536;13.468;2023-09-07T09:21:34;18.90;99.90
29341;DHT22;16337;59.536;13.468;2023-09-07T09:24:00;18.80;99.90
29341;DHT22;16337;59.536;13.468;2023-09-07T09:26:26;18.80;99.90
29341;DHT22;16337;59.536;13.468;2023-09-07T09:28:51;18.80;99.90
29341;DHT22;16337;59.536;13.468;2023-09-07T09:31:18;18.80;99.90
29341;DHT22;16337;59.536;13.468;2023-09-07T09:33:48;19.00;99.90
29341;DHT22;16337;59.536;13.468;2023-09-07T09:36:15;19.10;99.90
29341;DHT22;16337;59.536;13.468;2023-09-07T09:38:47;19.20;99.90
29341;DHT22;16337;59.536;13.468;2023-09-07T09:41:17;19.10;99.90
29341;DHT22;16337;59.536;13.468;2023-09-07T09:43:43;19.00;99.90
29341;DHT22;16337;59.536;13.468;2023-09-07T09:46:12;19.20;99.90
29341;DHT22;16337;59.536;13.468;2023-09-07T09:48:40;19.30;99.90
29341;DHT22;16337;59.536;13.468;2023-09-07T09:51:07;19.60;99.90
29341;DHT22;16337;59.536;13.468;2023-09-07T09:53:33;19.80;99.90
29341;DHT22;16337;59.536;13.468;2023-09-07T09:56:00;19.90;99.90
29341;DHT22;16337;59.536;13.468;2023-09-07T09:58:26;20.10;99.90
29341;DHT22;16337;59.536;13.468;2023-09-07T10:00:55;20.30;99.90
29341;DHT22;16337;59.536;13.468;2023-09-07T10:03:34;20.10;99.90
29341;DHT22;16337;59.536;13.468;2023-09-07T10:06:12;20.10;99.90
29341;DHT22;16337;59.536;13.468;2023-09-07T10:08:59;20.10;99.90
29341;DHT22;16337;59.536;13.468;2023-09-07T10:11:38;20.00;99.90
29341;DHT22;16337;59.536;13.468;2023-09-07T10:14:06;19.90;99.90
29341;DHT22;16337;59.536;13.468;2023-09-07T10:16:42;19.70;99.90
29341;DHT22;16337;59.536;13.468;2023-09-07T10:19:20;19.60;99.90
29341;DHT22;16337;59.536;13.468;2023-09-07T10:21:46;19.70;99.90
29341;DHT22;16337;59.536;13.468;2023-09-07T10:24:14;19.60;99.90
29341;DHT22;16337;59.536;13.468;2023-09-07T10:26:59;19.70;99.90
29341;DHT22;16337;59.536;13.468;2023-09-07T10:29:26;19.70;99.90
29341;DHT22;16337;59.536;13.468;2023-09-07T10:31:52;19.80;99.90
29341;DHT22;16337;59.536;13.468;2023-09-07T10:34:18;20.20;99.90
29341;DHT22;16337;59.536;13.468;2023-09-07T10:36:44;20.40;99.90
29341;DHT22;16337;59.536;13.468;2023-09-07T10:39:09;20.50;99.90
29341;DHT22;16337;59.536;13.468;2023-09-07T10:41:42;20.40;99.90
29341;DHT22;16337;59.536;13.468;2023-09-07T10:44:08;20.30;99.90
29341;DHT22;16337;59.536;13.468;2023-09-07T10:46:37;20.20;99.90
29341;DHT22;16337;59.536;13.468;2023-09-07T10:49:03;20.20;99.90
29341;DHT22;16337;59.536;13.468;2023-09-07T10:51:31;20.10;99.90
29341;DHT22;16337;59.536;13.468;2023-09-07T10:53:57;20.00;99.90
29341;DHT22;16337;59.536;13.468;2023-09-07T10:56:25;19.80;99.90
29341;DHT22;16337;59.536;13.468;2023-09-07T10:58:54;19.80;99.90
29341;DHT22;16337;59.536;13.468;2023-09-07T11:01:20;19.80;99.90
29341;DHT22;16337;59.536;13.468;2023-09-07T11:03:46;19.70;99.90
29341;DHT22;16337;59.536;13.468;2023-09-07T11:06:21;19.60;99.90
29341;DHT22;16337;59.536;13.468;2023-09-07T11:08:47;19.60;99.90
29341;DHT22;16337;59.536;13.468;2023-09-07T11:11:13;19.40;99.90
29341;DHT22;16337;59.536;13.468;2023-09-07T11:13:39;19.40;99.90
29341;DHT22;16337;59.536;13.468;2023-09-07T11:16:07;19.50;99.90
29341;DHT22;16337;59.536;13.468;2023-09-07T11:18:33;19.60;99.90
29341;DHT22;16337;59.536;13.468;2023-09-07T11:21:02;19.60;99.90
29341;DHT22;16337;59.536;13.468;2023-09-07T11:23:33;19.70;99.90
29341;DHT22;16337;59.536;13.468;2023-09-07T11:26:13;19.70;99.90
29341;DHT22;16337;59.536;13.468;2023-09-07T11:28:39;19.70;99.90
29341;DHT22;16337;59.536;13.468;2023-09-07T11:31:06;19.70;99.90
29341;DHT22;16337;59.536;13.468;2023-09-07T11:33:32;19.70;99.90
29341;DHT22;16337;59.536;13.468;2023-09-07T11:35:58;19.90;99.90
29341;DHT22;16337;59.536;13.468;2023-09-07T11:38:29;20.00;99.90
29341;DHT22;16337;59.536;13.468;2023-09-07T11:41:00;20.00;99.90
29341;DHT22;16337;59.536;13.468;2023-09-07T11:43:25;20.10;99.90
29341;DHT22;16337;59.536;13.468;2023-09-07T11:45:51;20.10;99.90
29341;DHT22;16337;59.536;13.468;2023-09-07T11:48:19;20.10;99.90
29341;DHT22;16337;59.536;13.468;2023-09-07T11:50:45;20.10;99.90
29341;DHT22;16337;59.536;13.468;2023-09-07T11:53:10;20.30;99.90
29341;DHT22;16337;59.536;13.468;2023-09-07T11:55:36;20.40;99.90
29341;DHT22;16337;59.536;13.468;2023-09-07T11:58:03;20.50;99.90
29341;DHT22;16337;59.536;13.468;2023-09-07T12:00:29;20.40;99.90
29341;DHT22;16337;59.536;13.468;2023-09-07T12:02:57;20.40;99.90
29341;DHT22;16337;59.536;13.468;2023-09-07T12:05:23;20.40;99.90
29341;DHT22;16337;59.536;13.468;2023-09-07T12:07:48;20.40;99.90
29341;DHT22;16337;59.536;13.468;2023-09-07T12:10:14;20.50;99.90
29341;DHT22;16337;59.536;13.468;2023-09-07T12:12:40;20.60;99.90
29341;DHT22;16337;59.536;13.468;2023-09-07T12:15:06;20.60;99.90
29341;DHT22;16337;59.536;13.468;2023-09-07T12:17:33;20.60;99.90
29341;DHT22;16337;59.536;13.468;2023-09-07T12:19:59;20.60;99.90
29341;DHT22;16337;59.536;13.468;2023-09-07T12:22:29;20.70;99.90
29341;DHT22;16337;59.536;13.468;2023-09-07T12:24:55;20.80;99.90
29341;DHT22;16337;59.536;13.468;2023-09-07T12:27:21;20.90;99.90
29341;DHT22;16337;59.536;13.468;2023-09-07T12:29:47;20.90;99.90
29341;DHT22;16337;59.536;13.468;2023-09-07T12:32:12;20.90;99.90
29341;DHT22;16337;59.536;13.468;2023-09-07T12:34:38;20.90;99.90
29341;DHT22;16337;59.536;13.468;2023-09-07T12:37:04;20.90;99.90
29341;DHT22;16337;59.536;13.468;2023-09-07T12:39:30;21.00;99.90
29341;DHT22;16337;59.536;13.468;2023-09-07T12:41:56;21.30;99.90
29341;DHT22;16337;59.536;13.468;2023-09-07T12:44:22;21.50;99.90
29341;DHT22;16337;59.536;13.468;2023-09-07T12:46:48;21.60;99.90
29341;DHT22;16337;59.536;13.468;2023-09-07T12:49:14;21.60;99.90
29341;DHT22;16337;59.536;13.468;2023-09-07T12:51:41;21.50;99.90
29341;DHT22;16337;59.536;13.468;2023-09-07T12:54:06;21.40;99.90
29341;DHT22;16337;59.536;13.468;2023-09-07T12:56:32;21.40;99.90
29341;DHT22;16337;59.536;13.468;2023-09-07T12:58:58;21.60;99.90
29341;DHT22;16337;59.536;13.468;2023-09-07T13:01:25;21.70;99.90
29341;DHT22;16337;59.536;13.468;2023-09-07T13:03:51;21.80;99.90
29341;DHT22;16337;59.536;13.468;2023-09-07T13:06:17;21.70;99.90
29341;DHT22;16337;59.536;13.468;2023-09-07T13:08:43;21.50;99.90
29341;DHT22;16337;59.536;13.468;2023-09-07T13:11:10;21.50;99.90
29341;DHT22;16337;59.536;13.468;2023-09-07T13:13:36;21.40;99.90
29341;DHT22;16337;59.536;13.468;2023-09-07T13:16:02;21.40;99.90
29341;DHT22;16337;59.536;13.468;2023-09-07T13:18:27;21.30;99.90
29341;DHT22;16337;59.536;13.468;2023-09-07T13:20:53;21.40;99.90
29341;DHT22;16337;59.536;13.468;2023-09-07T13:23:25;21.50;99.90
29341;DHT22;16337;59.536;13.468;2023-09-07T13:25:51;21.60;99.90
29341;DHT22;16337;59.536;13.468;2023-09-07T13:28:17;21.70;99.90
29341;DHT22;16337;59.536;13.468;2023-09-07T13:30:43;21.90;99.90
29341;DHT22;16337;59.536;13.468;2023-09-07T13:33:08;22.00;99.90
29341;DHT22;16337;59.536;13.468;2023-09-07T13:35:34;21.90;99.90
29341;DHT22;16337;59.536;13.468;2023-09-07T13:38:00;21.90;99.90
29341;DHT22;16337;59.536;13.468;2023-09-07T13:40:25;22.00;99.90
29341;DHT22;16337;59.536;13.468;2023-09-07T13:42:55;21.80;99.90
29341;DHT22;16337;59.536;13.468;2023-09-07T13:45:21;21.50;99.90
29341;DHT22;16337;59.536;13.468;2023-09-07T13:47:46;21.40;99.90
29341;DHT22;16337;59.536;13.468;2023-09-07T13:50:12;21.50;99.90
29341;DHT22;16337;59.536;13.468;2023-09-07T13:52:38;21.60;99.90
29341;DHT22;16337;59.536;13.468;2023-09-07T13:55:05;21.50;99.90
29341;DHT22;16337;59.536;13.468;2023-09-07T13:57:32;21.50;99.90
29341;DHT22;16337;59.536;13.468;2023-09-07T13:59:57;21.30;99.90
29341;DHT22;16337;59.536;13.468;2023-09-07T14:02:23;21.30;99.90
29341;DHT22;16337;59.536;13.468;2023-09-07T14:04:49;21.40;99.90
29341;DHT22;16337;59.536;13.468;2023-09-07T14:07:15;21.60;99.90
29341;DHT22;16337;59.536;13.468;2023-09-07T14:09:41;21.90;99.90
29341;DHT22;16337;59.536;13.468;2023-09-07T14:12:07;22.00;99.90
29341;DHT22;16337;59.536;13.468;2023-09-07T14:14:33;21.90;99.90
29341;DHT22;16337;59.536;13.468;2023-09-07T14:16:58;21.80;99.90
29341;DHT22;16337;59.536;13.468;2023-09-07T14:19:26;21.70;99.90
29341;DHT22;16337;59.536;13.468;2023-09-07T14:21:56;21.40;99.90
29341;DHT22;16337;59.536;13.468;2023-09-07T14:24:22;21.50;99.90
29341;DHT22;16337;59.536;13.468;2023-09-07T14:26:48;21.60;99.90
29341;DHT22;16337;59.536;13.468;2023-09-07T14:29:13;21.70;99.90
29341;DHT22;16337;59.536;13.468;2023-09-07T14:31:39;21.70;99.90
29341;DHT22;16337;59.536;13.468;2023-09-07T14:34:05;21.60;99.90
29341;DHT22;16337;59.536;13.468;2023-09-07T14:36:30;21.70;99.90
29341;DHT22;16337;59.536;13.468;2023-09-07T14:38:56;21.60;99.90
29341;DHT22;16337;59.536;13.468;2023-09-07T14:41:22;21.50;99.90
29341;DHT22;16337;59.536;13.468;2023-09-07T14:43:48;21.30;99.90
29341;DHT22;16337;59.536;13.468;2023-09-07T14:46:14;21.10;99.90
29341;DHT22;16337;59.536;13.468;2023-09-07T14:48:41;21.00;99.90
29341;DHT22;16337;59.536;13.468;2023-09-07T14:51:06;20.80;99.90
29341;DHT22;16337;59.536;13.468;2023-09-07T14:53:32;20.70;99.90
29341;DHT22;16337;59.536;13.468;2023-09-07T14:55:58;20.70;99.90
29341;DHT22;16337;59.536;13.468;2023-09-07T14:58:24;20.50;99.90
29341;DHT22;16337;59.536;13.468;2023-09-07T15:00:49;20.40;99.90
29341;DHT22;16337;59.536;13.468;2023-09-07T15:03:15;20.30;99.90
29341;DHT22;16337;59.536;13.468;2023-09-07T15:05:41;20.40;99.90
29341;DHT22;16337;59.536;13.468;2023-09-07T15:08:06;20.40;99.90
29341;DHT22;16337;59.536;13.468;2023-09-07T15:10:33;20.40;99.90
29341;DHT22;16337;59.536;13.468;2023-09-07T15:13:00;20.40;99.90
29341;DHT22;16337;59.536;13.468;2023-09-07T15:15:28;20.50;99.90